createdAt,value
2022-08-10T00:00:06.522Z,69.45
2022-08-10T00:01:06.576Z,68.54
2022-08-10T00:02:06.496Z,68.44
2022-08-10T00:03:06.481Z,68.44
2022-08-10T00:04:06.484Z,67.73
2022-08-10T00:05:06.452Z,68.07
2022-08-10T00:06:06.475Z,68.37
2022-08-10T00:07:06.433Z,68.77
2022-08-10T00:08:06.407Z,68.47
2022-08-10T00:09:06.414Z,69.68
2022-08-10T00:10:06.417Z,68.98
2022-08-10T00:11:06.395Z,68.98
2022-08-10T00:12:07.364Z,69.18
2022-08-10T00:13:06.344Z,68.77
2022-08-10T00:14:06.335Z,68.87
2022-08-10T00:15:06.344Z,69.08
2022-08-10T00:16:06.329Z,69.38
2022-08-10T00:17:06.303Z,68.57
2022-08-10T00:18:06.287Z,69.08
2022-08-10T00:19:06.327Z,68.98
2022-08-10T00:20:08.396Z,69.11
2022-08-10T00:21:06.371Z,69.11
2022-08-10T00:22:06.340Z,69.82
2022-08-10T00:23:06.252Z,69.82
2022-08-10T00:24:06.247Z,69.42
2022-08-10T00:25:06.191Z,70.22
2022-08-10T00:26:06.301Z,70.02
2022-08-10T00:27:53.121Z,69.18
2022-08-10T00:28:07.148Z,69.31
2022-08-10T00:29:09.286Z,69.62
2022-08-10T00:30:08.138Z,69.11
2022-08-10T00:31:06.107Z,69.71
2022-08-10T00:32:06.143Z,69.82
2022-08-10T00:33:06.106Z,70.12
2022-08-10T00:34:06.096Z,70.02
2022-08-10T00:35:06.070Z,69.31
2022-08-10T00:36:06.128Z,69.92
2022-08-10T00:37:06.039Z,69.42
2022-08-10T00:38:06.021Z,69.11
2022-08-10T00:39:07.943Z,69.42
2022-08-10T00:40:07.112Z,69.21
2022-08-10T00:41:05.981Z,70.22
2022-08-10T00:42:07.459Z,69.42
2022-08-10T00:43:05.963Z,70.02
2022-08-10T00:44:05.941Z,69.95
2022-08-10T00:45:05.942Z,70.56
2022-08-10T00:46:05.930Z,70.46
2022-08-10T00:47:05.926Z,71.77
2022-08-10T00:48:05.944Z,70.56
2022-08-10T00:49:05.882Z,70.46
2022-08-10T00:50:05.864Z,70.56
2022-08-10T00:51:05.863Z,70.56
2022-08-10T00:52:05.886Z,70.66
2022-08-10T00:53:05.843Z,71.26
2022-08-10T00:54:05.814Z,70.86
2022-08-10T00:55:05.794Z,70.86
2022-08-10T00:57:14.613Z,71.06
2022-08-10T00:57:15.872Z,70.86
2022-08-10T00:58:06.758Z,71.67
2022-08-10T00:59:05.744Z,71.57
2022-08-10T01:00:05.733Z,70.86
2022-08-10T01:01:05.753Z,70.66
2022-08-10T01:02:08.280Z,70.25
2022-08-10T01:03:05.800Z,70.56
2022-08-10T01:04:57.475Z,70.86
2022-08-10T01:05:06.673Z,70.66
2022-08-10T01:06:05.653Z,70.56
2022-08-10T01:07:05.657Z,69.95
2022-08-10T01:08:05.616Z,70.76
2022-08-10T01:09:05.631Z,70.15
2022-08-10T01:10:05.603Z,70.18
2022-08-10T01:11:05.595Z,71.00
2022-08-10T01:12:38.792Z,70.09
2022-08-10T01:13:06.566Z,70.39
2022-08-10T01:14:05.567Z,70.39
2022-08-10T01:15:05.548Z,70.69
2022-08-10T01:16:05.528Z,70.89
2022-08-10T01:17:05.539Z,71.30
2022-08-10T01:18:05.489Z,70.79
2022-08-10T01:19:05.499Z,71.30
2022-08-10T01:20:05.469Z,71.09
2022-08-10T01:21:05.449Z,70.49
2022-08-10T01:22:05.459Z,70.79
2022-08-10T01:23:05.438Z,71.80
2022-08-10T01:24:05.419Z,71.91
2022-08-10T01:25:05.411Z,71.91
2022-08-10T01:26:11.780Z,71.60
2022-08-10T01:27:06.374Z,71.70
2022-08-10T01:28:05.370Z,71.13
2022-08-10T01:29:05.353Z,71.73
2022-08-10T01:30:05.331Z,71.53
2022-08-10T01:31:05.392Z,71.73
2022-08-10T01:32:05.352Z,72.14
2022-08-10T01:33:05.319Z,71.33
2022-08-10T01:34:05.282Z,71.73
2022-08-10T01:35:05.292Z,71.84
2022-08-10T01:36:05.279Z,71.84
2022-08-10T01:37:05.261Z,72.44
2022-08-10T01:38:05.238Z,71.94
2022-08-10T01:39:05.297Z,71.94
2022-08-10T01:40:05.203Z,72.14
2022-08-10T01:41:05.202Z,71.88
2022-08-10T01:42:05.183Z,72.08
2022-08-10T01:43:08.450Z,72.68
2022-08-10T01:44:05.163Z,72.17
2022-08-10T01:45:05.143Z,72.17
2022-08-10T01:46:05.145Z,72.17
2022-08-10T01:47:05.111Z,73.39
2022-08-10T01:48:05.113Z,72.68
2022-08-10T01:49:06.085Z,72.28
2022-08-10T01:50:05.081Z,72.58
2022-08-10T01:51:05.057Z,72.48
2022-08-10T01:52:05.056Z,72.48
2022-08-10T01:53:05.070Z,72.38
2022-08-10T01:54:08.155Z,72.38
2022-08-10T01:55:06.025Z,72.14
2022-08-10T01:56:04.993Z,72.08
2022-08-10T01:57:06.004Z,72.28
2022-08-10T01:58:04.969Z,71.88
2022-08-10T01:59:04.986Z,72.17
2022-08-10T02:00:04.945Z,72.58
2022-08-10T02:01:04.975Z,71.97
2022-08-10T02:02:04.907Z,72.78
2022-08-10T02:03:04.963Z,72.88
2022-08-10T02:04:06.221Z,72.88
2022-08-10T02:05:04.880Z,72.48
2022-08-10T02:06:04.875Z,72.58
2022-08-10T02:07:04.868Z,72.28
2022-08-10T02:08:04.847Z,72.28
2022-08-10T02:09:06.701Z,72.38
2022-08-10T02:10:04.837Z,72.48
2022-08-10T02:11:04.799Z,72.28
2022-08-10T02:12:07.408Z,72.58
2022-08-10T02:13:04.781Z,72.28
2022-08-10T02:14:04.769Z,72.78
2022-08-10T02:15:04.753Z,72.08
2022-08-10T02:16:04.730Z,72.38
2022-08-10T02:17:04.716Z,72.38
2022-08-10T02:18:04.735Z,72.48
2022-08-10T02:19:04.710Z,72.68
2022-08-10T02:20:04.670Z,72.72
2022-08-10T02:21:04.681Z,72.61
2022-08-10T02:22:35.221Z,73.02
2022-08-10T02:23:05.644Z,72.72
2022-08-10T02:24:04.653Z,72.81
2022-08-10T02:25:04.625Z,73.02
2022-08-10T02:26:04.600Z,72.81
2022-08-10T02:27:04.592Z,72.92
2022-08-10T02:28:04.587Z,72.92
2022-08-10T02:29:04.582Z,72.41
2022-08-10T02:30:04.542Z,72.81
2022-08-10T02:31:06.289Z,72.52
2022-08-10T02:32:04.523Z,72.92
2022-08-10T02:33:04.514Z,73.22
2022-08-10T02:34:04.505Z,73.32
2022-08-10T02:35:04.483Z,73.02
2022-08-10T02:36:04.473Z,73.43
2022-08-10T02:37:10.929Z,73.32
2022-08-10T02:38:05.440Z,73.32
2022-08-10T02:39:04.544Z,73.12
2022-08-10T02:40:04.412Z,73.36
2022-08-10T02:42:18.622Z,73.36
2022-08-10T02:45:15.216Z,73.16
2022-08-10T02:45:21.692Z,73.25
2022-08-10T02:45:23.391Z,73.25
2022-08-10T02:45:26.708Z,73.56
2022-08-10T02:46:05.336Z,73.66
2022-08-10T02:47:04.349Z,73.76
2022-08-10T02:48:04.318Z,73.66
2022-08-10T02:49:04.295Z,73.76
2022-08-10T02:50:04.306Z,73.86
2022-08-10T02:51:04.277Z,73.86
2022-08-10T02:52:07.780Z,73.86
2022-08-10T02:53:04.245Z,74.07
2022-08-10T02:54:04.348Z,74.07
2022-08-10T02:55:06.047Z,73.80
2022-08-10T02:56:05.228Z,74.30
2022-08-10T02:57:04.207Z,74.00
2022-08-10T02:58:17.224Z,73.90
2022-08-10T02:59:05.168Z,74.71
2022-08-10T03:00:04.169Z,74.91
2022-08-10T03:01:04.171Z,74.61
2022-08-10T03:02:04.138Z,74.61
2022-08-10T03:03:04.122Z,74.30
2022-08-10T03:04:04.108Z,74.10
2022-08-10T03:05:04.091Z,74.51
2022-08-10T03:06:04.061Z,74.21
2022-08-10T03:07:04.081Z,74.61
2022-08-10T03:08:04.113Z,74.21
2022-08-10T03:09:04.113Z,74.71
2022-08-10T03:10:04.626Z,74.61
2022-08-10T03:12:16.780Z,74.54
2022-08-10T03:12:35.035Z,74.44
2022-08-10T03:13:04.970Z,74.74
2022-08-10T03:14:03.960Z,74.74
2022-08-10T03:15:03.991Z,74.65
2022-08-10T03:16:03.939Z,74.51
2022-08-10T03:17:03.962Z,74.54
2022-08-10T03:18:03.915Z,74.74
2022-08-10T03:19:03.978Z,74.74
2022-08-10T03:20:34.754Z,74.74
2022-08-10T03:21:08.784Z,74.54
2022-08-10T03:22:04.862Z,74.61
2022-08-10T03:23:03.902Z,74.61
2022-08-10T03:24:03.843Z,74.10
2022-08-10T03:25:04.824Z,74.44
2022-08-10T03:26:03.803Z,74.65
2022-08-10T03:27:03.808Z,74.85
2022-08-10T03:28:03.853Z,74.95
2022-08-10T03:29:03.773Z,74.85
2022-08-10T03:30:29.697Z,74.74
2022-08-10T03:31:04.778Z,74.95
2022-08-10T03:32:03.806Z,74.85
2022-08-10T03:33:03.788Z,74.54
2022-08-10T03:34:04.705Z,74.65
2022-08-10T03:35:04.722Z,74.85
2022-08-10T03:36:42.226Z,74.95
2022-08-10T03:37:04.682Z,74.95
2022-08-10T03:38:03.717Z,75.25
2022-08-10T03:39:04.804Z,75.46
2022-08-10T03:40:03.671Z,75.76
2022-08-10T03:41:03.647Z,75.05
2022-08-10T03:42:03.610Z,74.95
2022-08-10T03:43:03.678Z,75.05
2022-08-10T03:44:03.612Z,75.15
2022-08-10T03:45:03.588Z,75.05
2022-08-10T03:46:03.539Z,74.85
2022-08-10T03:47:03.523Z,74.95
2022-08-10T03:48:04.516Z,74.85
2022-08-10T03:49:03.500Z,74.65
2022-08-10T04:02:54.731Z,74.44
2022-08-10T04:04:13.050Z,74.44
2022-08-10T04:04:55.361Z,74.54
2022-08-10T04:05:54.333Z,74.44
2022-08-10T04:06:54.656Z,74.24
2022-08-10T04:07:54.303Z,74.14
2022-08-10T04:08:54.302Z,74.04
2022-08-10T04:09:56.493Z,74.04
2022-08-10T04:10:54.280Z,74.34
2022-08-10T04:11:54.257Z,73.93
2022-08-10T04:12:54.242Z,73.93
2022-08-10T04:13:54.255Z,74.14
2022-08-10T04:14:54.265Z,74.34
2022-08-10T04:15:54.215Z,74.65
2022-08-10T04:16:54.193Z,74.54
2022-08-10T04:18:04.864Z,74.44
2022-08-10T04:18:55.173Z,74.14
2022-08-10T04:19:54.165Z,74.24
2022-08-10T04:20:54.164Z,74.44
2022-08-10T04:21:54.122Z,74.34
2022-08-10T04:22:54.126Z,74.34
2022-08-10T04:23:54.106Z,74.34
2022-08-10T04:24:54.085Z,74.44
2022-08-10T04:25:54.097Z,74.34
2022-08-10T04:26:54.066Z,74.34
2022-08-10T04:27:54.035Z,74.44
2022-08-10T04:28:54.046Z,74.44
2022-08-10T04:29:54.036Z,74.44
2022-08-10T04:30:54.028Z,74.74
2022-08-10T04:31:53.995Z,74.54
2022-08-10T04:32:53.986Z,74.24
2022-08-10T04:33:53.977Z,74.34
2022-08-10T04:34:53.967Z,74.04
2022-08-10T04:35:53.955Z,73.83
2022-08-10T04:36:53.930Z,73.73
2022-08-10T04:37:53.919Z,73.73
2022-08-10T04:38:53.917Z,73.90
2022-08-10T04:39:53.898Z,73.90
2022-08-10T04:40:53.891Z,73.90
2022-08-10T04:41:53.862Z,73.80
2022-08-10T04:42:53.858Z,73.70
2022-08-10T04:43:54.848Z,73.90
2022-08-10T04:44:53.843Z,74.21
2022-08-10T04:45:53.819Z,74.00
2022-08-10T04:46:57.985Z,73.80
2022-08-10T04:48:00.802Z,73.90
2022-08-10T04:49:01.847Z,73.70
2022-08-10T04:49:56.886Z,73.39
2022-08-10T04:50:53.763Z,72.89
2022-08-10T04:51:53.749Z,73.49
2022-08-10T04:52:53.719Z,73.90
2022-08-10T04:54:03.069Z,74.10
2022-08-10T04:54:54.691Z,74.30
2022-08-10T04:55:53.691Z,74.61
2022-08-10T04:56:53.670Z,74.81
2022-08-10T04:57:53.653Z,75.66
2022-08-10T04:58:53.644Z,75.25
2022-08-10T04:59:53.631Z,75.46
2022-08-10T05:00:53.710Z,75.96
2022-08-10T05:02:27.981Z,75.76
2022-08-10T05:02:54.581Z,75.86
2022-08-10T05:04:34.840Z,75.76
2022-08-10T05:04:54.562Z,76.57
2022-08-10T05:05:53.563Z,75.76
2022-08-10T05:06:53.534Z,75.66
2022-08-10T05:07:54.198Z,76.06
2022-08-10T05:08:53.524Z,76.47
2022-08-10T05:10:01.827Z,76.47
2022-08-10T05:10:54.515Z,76.17
2022-08-10T05:11:53.461Z,76.37
2022-08-10T05:12:53.457Z,76.57
2022-08-10T05:13:53.457Z,76.87
2022-08-10T05:14:54.549Z,77.08
2022-08-10T05:15:53.413Z,76.47
2022-08-10T05:16:53.414Z,77.65
2022-08-10T05:18:08.117Z,77.86
2022-08-10T05:18:54.374Z,77.45
2022-08-10T05:20:04.402Z,77.34
2022-08-10T05:20:54.345Z,77.65
2022-08-10T05:22:04.323Z,76.54
2022-08-10T05:22:54.347Z,76.13
2022-08-10T05:23:53.316Z,76.20
2022-08-10T05:24:53.297Z,75.99
2022-08-10T05:25:53.285Z,76.09
2022-08-10T05:27:00.780Z,76.29
2022-08-10T05:27:57.411Z,75.08
2022-08-10T05:28:53.235Z,74.54
2022-08-10T05:30:02.515Z,74.84
2022-08-10T05:30:54.228Z,75.04
2022-08-10T05:31:53.196Z,74.95
2022-08-10T05:32:57.679Z,75.42
2022-08-10T05:33:54.185Z,75.01
2022-08-10T05:34:53.178Z,74.60
2022-08-10T05:35:57.582Z,74.10
2022-08-10T05:36:54.138Z,73.90
2022-08-10T05:38:12.224Z,74.71
2022-08-10T05:38:54.109Z,74.67
2022-08-10T05:39:53.197Z,75.48
2022-08-10T05:40:53.080Z,74.98
2022-08-10T05:41:53.167Z,74.87
2022-08-10T05:42:53.060Z,73.96
2022-08-10T05:43:53.029Z,74.57
2022-08-10T05:44:53.049Z,75.45
2022-08-10T05:46:17.476Z,74.84
2022-08-10T05:46:54.015Z,73.93
2022-08-10T05:48:54.899Z,74.63
2022-08-10T05:49:00.068Z,73.52
2022-08-10T05:49:53.991Z,74.54
2022-08-10T05:50:52.950Z,74.10
2022-08-10T05:51:52.920Z,74.19
2022-08-10T05:52:52.922Z,73.08
2022-08-10T05:54:02.075Z,73.39
2022-08-10T05:54:53.902Z,73.08
2022-08-10T05:55:52.881Z,72.88
2022-08-10T05:56:53.198Z,73.25
2022-08-10T05:57:52.863Z,73.55
2022-08-10T05:58:52.842Z,72.34
2022-08-10T06:00:32.782Z,72.14
2022-08-10T06:00:53.835Z,72.34
2022-08-10T06:02:33.288Z,73.66
2022-08-10T06:02:53.783Z,74.26
2022-08-10T06:03:52.775Z,73.22
2022-08-10T06:04:52.783Z,72.31
2022-08-10T06:05:52.745Z,73.02
2022-08-10T06:06:52.734Z,72.91
2022-08-10T06:07:52.726Z,72.81
2022-08-10T06:08:52.705Z,72.41
2022-08-10T06:09:59.565Z,71.97
2022-08-10T06:12:23.531Z,71.87
2022-08-10T06:12:24.355Z,71.06
2022-08-10T06:12:56.639Z,72.38
2022-08-10T06:13:59.604Z,71.06
2022-08-10T06:14:59.684Z,72.34
2022-08-10T06:15:53.625Z,71.94
2022-08-10T06:16:52.595Z,72.04
2022-08-10T06:18:01.583Z,72.04
2022-08-10T06:18:53.568Z,72.34
2022-08-10T06:19:52.590Z,72.11
2022-08-10T06:20:52.561Z,71.50
2022-08-10T06:22:00.400Z,70.79
2022-08-10T06:22:53.527Z,70.59
2022-08-10T06:23:52.505Z,69.68
2022-08-10T06:25:26.922Z,69.08
2022-08-10T06:26:11.795Z,67.94
2022-08-10T06:26:54.468Z,68.74
2022-08-10T06:27:52.480Z,68.85
2022-08-10T06:28:53.110Z,69.15
2022-08-10T06:29:53.430Z,69.21
2022-08-10T06:30:52.464Z,67.91
2022-08-10T06:31:52.399Z,67.60
2022-08-10T06:32:52.395Z,66.60
2022-08-10T06:33:52.382Z,66.47
2022-08-10T06:34:52.458Z,66.56
2022-08-10T06:35:52.348Z,66.47
2022-08-10T06:36:52.349Z,66.87
2022-08-10T06:37:52.342Z,66.33
2022-08-10T06:38:52.323Z,66.43
2022-08-10T06:39:52.396Z,65.53
2022-08-10T06:40:52.303Z,65.02
2022-08-10T06:41:58.067Z,64.79
2022-08-10T06:42:53.261Z,64.49
2022-08-10T06:43:52.252Z,64.39
2022-08-10T06:44:52.271Z,64.29
2022-08-10T06:46:07.734Z,64.16
2022-08-10T06:46:53.201Z,64.46
2022-08-10T06:47:52.191Z,63.96
2022-08-10T06:48:52.182Z,62.85
2022-08-10T06:49:52.192Z,62.62
2022-08-10T06:50:58.245Z,63.53
2022-08-10T06:51:56.972Z,63.42
2022-08-10T06:52:52.124Z,63.73
2022-08-10T06:53:54.576Z,62.82
2022-08-10T06:54:52.133Z,62.82
2022-08-10T06:55:56.571Z,62.59
2022-08-10T06:57:16.686Z,62.99
2022-08-10T06:57:59.691Z,62.59
2022-08-10T06:58:53.054Z,62.19
2022-08-10T06:59:52.047Z,61.79
2022-08-10T07:00:52.099Z,61.05
2022-08-10T07:01:52.027Z,61.05
2022-08-10T07:02:52.006Z,60.85
2022-08-10T07:03:51.975Z,60.96
2022-08-10T07:04:51.964Z,61.43
2022-08-10T07:05:51.965Z,60.72
2022-08-10T07:06:51.945Z,61.22
2022-08-10T07:07:51.938Z,61.13
2022-08-10T07:08:51.917Z,60.62
2022-08-10T07:09:51.906Z,60.42
2022-08-10T07:10:51.886Z,60.62
2022-08-10T07:11:51.880Z,61.00
2022-08-10T07:12:51.868Z,60.60
2022-08-10T07:14:14.234Z,59.99
2022-08-10T07:14:52.830Z,59.79
2022-08-10T07:15:58.127Z,59.49
2022-08-10T07:16:52.820Z,58.79
2022-08-10T07:17:51.808Z,58.96
2022-08-10T07:18:51.779Z,58.86
2022-08-10T07:19:52.171Z,58.96
2022-08-10T07:20:51.806Z,58.76
2022-08-10T07:21:51.739Z,58.66
2022-08-10T07:23:27.175Z,58.23
2022-08-10T07:23:57.162Z,58.13
2022-08-10T07:24:52.710Z,57.93
2022-08-10T07:25:51.718Z,57.93
2022-08-10T07:26:51.680Z,57.80
2022-08-10T07:27:58.711Z,57.70
2022-08-10T07:28:52.692Z,57.60
2022-08-10T07:29:53.731Z,57.50
2022-08-10T07:30:51.642Z,57.30
2022-08-10T07:31:57.080Z,57.90
2022-08-10T07:32:52.614Z,58.30
2022-08-10T07:33:51.596Z,58.07
2022-08-10T07:34:51.575Z,57.68
2022-08-10T07:35:51.602Z,57.57
2022-08-10T07:36:51.587Z,56.37
2022-08-10T07:37:51.546Z,57.07
2022-08-10T07:38:51.536Z,57.07
2022-08-10T07:40:02.852Z,57.45
2022-08-10T07:40:52.511Z,57.05
2022-08-10T07:41:51.494Z,56.95
2022-08-10T07:42:51.465Z,57.15
2022-08-10T07:43:51.471Z,56.85
2022-08-10T07:44:51.501Z,56.65
2022-08-10T07:45:51.472Z,55.85
2022-08-10T07:46:51.425Z,56.15
2022-08-10T07:47:54.367Z,56.02
2022-08-10T07:48:51.395Z,55.72
2022-08-10T07:49:51.395Z,56.32
2022-08-10T07:50:51.386Z,55.92
2022-08-10T07:51:54.772Z,56.42
2022-08-10T07:52:51.353Z,55.82
2022-08-10T07:53:51.334Z,56.42
2022-08-10T07:54:51.340Z,57.12
2022-08-10T07:56:03.964Z,56.12
2022-08-10T07:56:52.298Z,55.92
2022-08-10T07:57:51.282Z,55.99
2022-08-10T07:58:52.587Z,55.49
2022-08-10T07:59:51.268Z,54.19
2022-08-10T08:00:51.283Z,54.39
2022-08-10T08:01:51.288Z,54.39
2022-08-10T08:02:51.215Z,54.79
2022-08-10T08:04:11.438Z,54.60
2022-08-10T08:04:52.206Z,54.67
2022-08-10T08:06:02.701Z,55.77
2022-08-10T08:06:52.170Z,55.57
2022-08-10T08:07:51.202Z,55.77
2022-08-10T08:08:51.169Z,55.77
2022-08-10T08:09:57.949Z,55.57
2022-08-10T08:10:52.131Z,54.86
2022-08-10T08:11:51.113Z,55.07
2022-08-10T08:12:51.093Z,55.04
2022-08-10T08:13:51.088Z,54.64
2022-08-10T08:14:51.073Z,55.24
2022-08-10T08:16:19.202Z,55.04
2022-08-10T08:16:52.034Z,54.64
2022-08-10T08:17:52.536Z,54.84
2022-08-10T08:19:16.365Z,54.61
2022-08-10T08:19:55.583Z,54.52
2022-08-10T08:20:51.020Z,54.11
2022-08-10T08:24:04.585Z,51.59
2022-08-10T08:24:07.520Z,52.19
2022-08-10T08:24:08.637Z,52.92
2022-08-10T08:24:52.433Z,51.17
2022-08-10T08:25:50.927Z,51.17
2022-08-10T08:26:52.004Z,51.47
2022-08-10T08:27:50.906Z,49.95
2022-08-10T08:28:50.877Z,50.05
2022-08-10T08:29:50.865Z,49.65
2022-08-10T08:30:50.857Z,50.45
2022-08-10T08:31:54.500Z,49.93
2022-08-10T08:32:51.826Z,50.02
2022-08-10T08:33:50.836Z,49.43
2022-08-10T08:34:50.800Z,49.03
2022-08-10T08:35:50.817Z,48.83
2022-08-10T08:36:50.771Z,48.41
2022-08-10T08:38:31.882Z,48.21
2022-08-10T08:38:51.740Z,48.21
2022-08-10T08:39:50.802Z,48.21
2022-08-10T08:40:50.727Z,48.19
2022-08-10T08:41:50.722Z,48.08
2022-08-10T08:42:50.700Z,47.99
2022-08-10T08:43:50.686Z,47.17
2022-08-10T08:44:50.661Z,46.97
2022-08-10T08:46:00.590Z,47.47
2022-08-10T08:46:58.814Z,46.65
2022-08-10T08:47:51.694Z,46.15
2022-08-10T08:48:51.610Z,45.95
2022-08-10T08:50:07.868Z,46.35
2022-08-10T08:50:56.720Z,45.95
2022-08-10T08:52:06.172Z,45.63
2022-08-10T08:52:53.651Z,45.53
2022-08-10T08:54:01.153Z,45.03
2022-08-10T08:54:51.538Z,44.44
2022-08-10T08:56:05.900Z,45.14
2022-08-10T08:56:51.588Z,45.41
2022-08-10T08:57:51.242Z,44.92
2022-08-10T08:58:50.495Z,45.81
2022-08-10T08:59:50.472Z,45.21
2022-08-10T09:00:50.457Z,44.42
2022-08-10T09:01:50.511Z,44.70
2022-08-10T09:02:54.733Z,44.79
2022-08-10T09:03:50.429Z,44.79
2022-08-10T09:04:50.411Z,45.27
2022-08-10T09:05:59.527Z,44.27
2022-08-10T09:06:51.379Z,43.68
2022-08-10T09:08:02.082Z,42.88
2022-08-10T09:08:51.365Z,42.77
2022-08-10T09:09:50.345Z,42.37
2022-08-10T09:10:50.341Z,42.47
2022-08-10T09:11:50.320Z,42.57
2022-08-10T09:12:50.314Z,43.26
2022-08-10T09:13:50.278Z,42.86
2022-08-10T09:14:50.293Z,43.54
2022-08-10T09:15:50.289Z,43.44
2022-08-10T09:16:50.268Z,43.14
2022-08-10T09:17:50.249Z,41.53
2022-08-10T09:18:50.221Z,41.33
2022-08-10T09:19:50.262Z,41.93
2022-08-10T09:20:50.202Z,41.83
2022-08-10T09:22:13.229Z,42.03
2022-08-10T09:22:51.679Z,41.12
2022-08-10T09:24:04.171Z,41.22
2022-08-10T09:24:51.151Z,41.41
2022-08-10T09:25:50.140Z,41.00
2022-08-10T09:26:50.133Z,41.60
2022-08-10T09:27:50.302Z,41.60
2022-08-10T09:29:11.463Z,41.39
2022-08-10T09:29:51.095Z,41.28
2022-08-10T09:31:18.768Z,40.98
2022-08-10T09:32:55.037Z,40.19
2022-08-10T09:36:16.930Z,41.57
2022-08-10T09:36:21.005Z,40.66
2022-08-10T09:36:25.382Z,40.66
2022-08-10T09:36:26.582Z,39.97
2022-08-10T09:36:50.986Z,40.05
2022-08-10T09:38:02.883Z,40.56
2022-08-10T09:38:50.966Z,40.86
2022-08-10T09:40:06.720Z,40.19
2022-08-10T09:40:59.377Z,40.58
2022-08-10T09:41:50.959Z,40.19
2022-08-10T09:43:07.821Z,40.80
2022-08-10T09:43:50.906Z,40.58
2022-08-10T09:44:58.151Z,40.78
2022-08-10T09:45:50.879Z,40.78
2022-08-10T10:03:26.474Z,38.45
2022-08-10T10:04:26.387Z,37.05
2022-08-10T10:05:26.395Z,38.13
2022-08-10T10:06:26.387Z,37.64
2022-08-10T10:07:26.358Z,37.56
2022-08-10T10:08:26.355Z,37.76
2022-08-10T10:09:26.954Z,38.06
2022-08-10T10:10:26.319Z,38.13
2022-08-10T10:11:26.291Z,38.55
2022-08-10T10:12:26.308Z,37.07
2022-08-10T10:13:42.230Z,36.95
2022-08-10T10:14:27.249Z,37.26
2022-08-10T10:15:26.305Z,36.67
2022-08-10T10:16:26.258Z,36.08
2022-08-10T10:17:26.241Z,36.37
2022-08-10T10:18:26.213Z,35.86
2022-08-10T10:19:26.211Z,36.14
2022-08-10T10:20:26.191Z,35.94
2022-08-10T10:21:56.046Z,35.33
2022-08-10T10:22:27.171Z,35.31
2022-08-10T10:23:26.152Z,34.43
2022-08-10T10:24:26.142Z,34.01
2022-08-10T10:25:50.183Z,32.92
2022-08-10T10:26:27.132Z,32.82
2022-08-10T10:27:26.097Z,33.61
2022-08-10T10:28:34.873Z,33.00
2022-08-10T10:30:27.088Z,34.58
2022-08-10T10:31:26.043Z,33.29
2022-08-10T10:32:26.056Z,32.49
2022-08-10T10:33:27.018Z,33.08
2022-08-10T10:34:26.007Z,32.79
2022-08-10T10:35:25.998Z,31.79
2022-08-10T10:36:25.986Z,32.18
2022-08-10T10:38:00.919Z,31.39
2022-08-10T10:38:27.038Z,31.70
2022-08-10T10:39:25.982Z,32.48
2022-08-10T10:40:25.930Z,32.28
2022-08-10T10:41:25.918Z,30.71
2022-08-10T10:42:44.138Z,31.97
2022-08-10T10:43:26.899Z,31.18
2022-08-10T10:44:25.899Z,31.09
2022-08-10T10:45:25.870Z,32.15
2022-08-10T10:46:25.871Z,30.87
2022-08-10T10:47:25.863Z,30.87
2022-08-10T10:48:28.974Z,31.25
2022-08-10T10:49:25.811Z,30.07
2022-08-10T10:50:25.811Z,29.38
2022-08-10T10:51:25.803Z,30.45
2022-08-10T10:52:25.834Z,30.05
2022-08-10T10:53:25.772Z,29.94
2022-08-10T10:54:25.763Z,29.85
2022-08-10T10:55:25.753Z,28.77
2022-08-10T10:56:25.766Z,30.14
2022-08-10T10:57:59.072Z,30.02
2022-08-10T10:58:28.615Z,30.02
2022-08-10T10:59:54.895Z,29.34
2022-08-10T11:00:26.693Z,28.85
2022-08-10T11:01:25.740Z,29.25
2022-08-10T11:02:25.791Z,28.96
2022-08-10T11:03:25.654Z,29.27
2022-08-10T11:04:25.656Z,30.17
2022-08-10T11:05:25.626Z,30.65
2022-08-10T11:06:39.364Z,30.55
2022-08-10T11:07:31.683Z,29.66
2022-08-10T11:08:29.126Z,29.96
2022-08-10T11:10:08.802Z,29.16
2022-08-10T11:10:32.387Z,28.55
2022-08-10T11:12:02.007Z,28.65
2022-08-10T11:12:27.542Z,29.33
2022-08-10T11:14:25.724Z,28.44
2022-08-10T11:14:29.182Z,28.83
2022-08-10T11:15:25.498Z,28.74
2022-08-10T11:16:25.507Z,28.54
2022-08-10T11:17:25.478Z,28.44
2022-08-10T11:18:25.471Z,28.33
2022-08-10T11:19:25.448Z,28.44
2022-08-10T11:20:26.438Z,28.23
2022-08-10T11:21:25.411Z,28.25
2022-08-10T11:22:25.421Z,28.25
2022-08-10T11:23:25.403Z,28.82
2022-08-10T11:24:46.818Z,29.41
2022-08-10T11:25:26.372Z,28.41
2022-08-10T11:26:25.379Z,28.41
2022-08-10T11:27:25.352Z,28.51
2022-08-10T11:28:25.333Z,27.91
2022-08-10T11:29:25.323Z,27.62
2022-08-10T11:30:25.324Z,27.91
2022-08-10T11:31:25.316Z,27.42
2022-08-10T11:32:25.302Z,27.23
2022-08-10T11:33:32.568Z,27.12
2022-08-10T11:34:48.237Z,27.53
2022-08-10T11:35:27.904Z,28.03
2022-08-10T11:36:25.270Z,29.43
2022-08-10T11:37:25.246Z,28.92
2022-08-10T11:38:32.668Z,28.23
2022-08-10T11:39:26.232Z,28.02
2022-08-10T11:40:25.177Z,28.40
2022-08-10T11:42:07.146Z,27.90
2022-08-10T11:42:33.452Z,27.90
2022-08-10T11:43:26.188Z,27.39
2022-08-10T11:44:25.141Z,27.20
2022-08-10T11:45:25.119Z,26.90
2022-08-10T11:46:28.681Z,26.50
2022-08-10T11:47:25.108Z,26.88
2022-08-10T11:48:54.617Z,26.48
2022-08-10T11:49:26.068Z,25.70
2022-08-10T11:50:25.066Z,26.48
2022-08-10T11:51:25.051Z,25.68
2022-08-10T11:52:25.049Z,26.07
2022-08-10T11:53:25.051Z,25.67
2022-08-10T11:54:25.011Z,26.06
2022-08-10T11:55:25.000Z,26.24
2022-08-10T11:56:25.042Z,25.45
2022-08-10T11:57:24.983Z,25.63
2022-08-10T11:58:25.980Z,24.84
2022-08-10T11:59:24.953Z,24.65
2022-08-10T12:00:24.942Z,23.75
2022-08-10T12:01:24.933Z,24.91
2022-08-10T12:02:24.967Z,24.23
2022-08-10T12:03:24.924Z,24.32
2022-08-10T12:04:24.895Z,23.54
2022-08-10T12:05:52.159Z,23.35
2022-08-10T12:06:54.326Z,23.33
2022-08-10T12:10:04.071Z,23.33
2022-08-10T12:10:06.683Z,23.14
2022-08-10T12:10:09.788Z,23.82
2022-08-10T12:10:25.836Z,24.11
2022-08-10T12:11:25.454Z,22.93
2022-08-10T12:12:24.820Z,23.80
2022-08-10T12:13:24.789Z,23.79
2022-08-10T12:14:24.812Z,22.92
2022-08-10T12:15:24.766Z,23.31
2022-08-10T12:16:24.759Z,23.21
2022-08-10T12:17:24.740Z,23.30
2022-08-10T12:18:24.730Z,23.59
2022-08-10T12:19:24.724Z,23.58
2022-08-10T12:20:24.688Z,23.38
2022-08-10T12:21:24.683Z,23.39
2022-08-10T12:22:24.679Z,23.52
2022-08-10T12:23:24.664Z,24.10
2022-08-10T12:24:24.642Z,23.90
2022-08-10T12:25:55.749Z,23.60
2022-08-10T12:26:25.644Z,23.62
2022-08-10T12:27:25.613Z,24.04
2022-08-10T12:28:49.347Z,24.65
2022-08-10T12:29:25.623Z,24.74
2022-08-10T12:30:24.565Z,24.07
2022-08-10T12:31:24.554Z,25.35
2022-08-10T12:32:25.454Z,24.49
2022-08-10T12:33:24.534Z,25.98
2022-08-10T12:34:24.525Z,25.90
2022-08-10T12:35:26.392Z,26.51
2022-08-10T12:36:24.515Z,28.00
2022-08-10T12:37:24.496Z,27.23
2022-08-10T12:38:24.467Z,27.62
2022-08-10T12:39:24.536Z,26.64
2022-08-10T12:40:35.232Z,26.81
2022-08-10T12:41:44.663Z,26.99
2022-08-10T12:42:37.105Z,26.20
2022-08-10T12:44:07.317Z,26.57
2022-08-10T12:44:41.005Z,26.39
2022-08-10T12:45:25.379Z,26.31
2022-08-10T12:46:24.372Z,27.20
2022-08-10T12:47:24.370Z,26.62
2022-08-10T12:48:24.341Z,26.73
2022-08-10T12:49:25.367Z,26.83
2022-08-10T12:50:33.415Z,27.45
2022-08-10T12:51:25.310Z,28.03
2022-08-10T12:52:24.303Z,26.78
2022-08-10T12:53:24.296Z,27.23
2022-08-10T12:54:32.241Z,26.83
2022-08-10T12:55:25.272Z,25.70
2022-08-10T12:56:24.252Z,25.05
2022-08-10T12:57:24.244Z,24.33
2022-08-10T12:58:59.928Z,22.72
2022-08-10T12:59:25.234Z,24.35
2022-08-10T13:00:24.216Z,22.57
2022-08-10T13:01:24.245Z,21.30
2022-08-10T13:02:24.234Z,21.85
2022-08-10T13:04:20.533Z,21.04
2022-08-10T13:04:25.228Z,20.36
2022-08-10T13:05:24.136Z,21.06
2022-08-10T13:06:24.135Z,21.54
2022-08-10T13:08:24.407Z,20.56
2022-08-10T13:08:28.082Z,20.26
2022-08-10T13:09:24.108Z,20.25
2022-08-10T13:10:24.080Z,19.38
2022-08-10T13:12:34.319Z,20.23
2022-08-10T13:12:34.955Z,19.56
2022-08-10T13:13:25.063Z,18.88
2022-08-10T13:14:24.401Z,19.37
2022-08-10T13:15:28.180Z,19.37
2022-08-10T13:16:25.029Z,19.74
2022-08-10T13:17:24.992Z,19.07
2022-08-10T13:18:24.980Z,19.06
2022-08-10T13:19:23.990Z,19.17
2022-08-10T13:20:23.963Z,18.97
2022-08-10T13:21:23.961Z,18.78
2022-08-10T13:22:23.933Z,19.45